Terminal Aerodrome Forecast
Issued by NWS Austin/San Antonio, TX

Home | Current Version | Previous Version | Text Only | Print | Product List | Glossary On
Versions: 1 2 3 4 5 6 7 8 9 10 11 12 13 14 15 16 17 18 19
326
FTUS44 KEWX 201725
TAFAUS
TAF
KAUS 201725Z 2018/2124 18007KT P6SM SCT060
     FM210900 20007KT P6SM FEW010=

USA.gov is the U.S. government's official web portal to all federal, state and local government web resources and services.